Time;durP1;ratioP1;P1;durP2;ratioP2;P2;SDS_P1;SDS_P2;PMS_P1;PMS_P2;Temp;Humidity;BMP_temperature;BMP_pressure;BME280_temperature;BME280_humidity;BME280_pressure;Samples;Min_cycle;Max_cycle;Signal;HPM_P1;HPM_P2
2021/10/02 00:02:07;;;;;;;11.43;9.80;;;12.40;99.90;;;;;;5068035;28;21087;-64
2021/10/02 00:35:01;;;;;;;12.23;9.27;;;11.90;99.90;;;;;;5069224;28;20429;-64
2021/10/02 00:37:37;;;;;;;12.43;9.97;;;11.80;99.90;;;;;;5069995;28;20465;-64
2021/10/02 00:45:33;;;;;;;14.70;10.17;;;11.90;99.90;;;;;;5069930;28;20415;-65
2021/10/02 00:48:00;;;;;;;12.90;11.00;;;11.90;99.90;;;;;;5069831;28;20475;-63
2021/10/02 00:50:28;;;;;;;15.13;11.60;;;11.90;99.90;;;;;;5069595;28;20449;-65
2021/10/02 00:52:55;;;;;;;11.80;9.10;;;11.90;99.90;;;;;;5068351;28;20481;-64
2021/10/02 00:55:22;;;;;;;10.73;9.30;;;11.90;99.90;;;;;;5069479;28;20474;-65
2021/10/02 00:57:50;;;;;;;11.63;9.07;;;11.90;99.90;;;;;;5069668;28;20475;-65
2021/10/02 01:00:17;;;;;;;11.40;9.17;;;12.00;99.90;;;;;;5069886;28;20959;-63
2021/10/02 01:02:50;;;;;;;12.63;10.50;;;12.00;99.90;;;;;;5068740;28;20443;-65
2021/10/02 01:05:53;;;;;;;13.27;10.13;;;12.00;99.90;;;;;;5069841;28;20967;-65
2021/10/02 01:08:32;;;;;;;12.43;9.80;;;12.00;99.90;;;;;;5069680;28;20499;-67
2021/10/02 01:11:12;;;;;;;12.50;9.90;;;12.00;99.90;;;;;;5069784;28;20459;-65
2021/10/02 01:13:48;;;;;;;12.60;10.90;;;12.00;99.90;;;;;;5068206;28;20458;-64
2021/10/02 01:16:21;;;;;;;12.23;9.47;;;12.00;99.90;;;;;;5070073;28;21368;-65
2021/10/02 01:18:55;;;;;;;12.00;9.43;;;12.00;99.90;;;;;;5069488;28;20463;-65
2021/10/02 01:21:39;;;;;;;12.00;9.50;;;11.90;99.90;;;;;;5069322;28;20447;-65
2021/10/02 01:24:24;;;;;;;12.63;9.93;;;11.90;99.90;;;;;;5069113;28;20838;-65
2021/10/02 01:27:16;;;;;;;11.27;10.07;;;12.00;99.90;;;;;;5069636;28;20442;-65
2021/10/02 01:29:46;;;;;;;13.93;10.10;;;12.00;99.90;;;;;;5069543;28;20509;-65
2021/10/02 01:32:19;;;;;;;14.53;9.97;;;12.00;99.90;;;;;;5068396;28;21042;-65
2021/10/02 01:34:58;;;;;;;18.43;10.10;;;12.00;99.90;;;;;;5069027;28;20447;-64
2021/10/02 01:37:35;;;;;;;12.47;9.97;;;12.00;99.90;;;;;;5069176;28;20532;-64
2021/10/02 01:48:35;;;;;;;14.30;9.43;;;12.00;99.90;;;;;;5072493;28;20454;-65
2021/10/02 01:51:03;;;;;;;12.87;9.60;;;12.10;99.90;;;;;;5072598;28;20478;-64
2021/10/02 01:53:33;;;;;;;12.87;9.90;;;12.10;99.90;;;;;;5071483;28;20504;-64
2021/10/02 01:56:02;;;;;;;11.87;10.67;;;12.10;99.90;;;;;;5072919;28;20453;-64
2021/10/02 01:58:32;;;;;;;11.87;9.83;;;12.10;99.90;;;;;;5072410;28;20467;-65
2021/10/02 02:01:02;;;;;;;14.33;9.80;;;12.00;99.90;;;;;;5072981;28;20455;-64
2021/10/02 02:03:33;;;;;;;12.53;9.83;;;12.00;99.90;;;;;;5071340;28;20446;-65
2021/10/02 02:06:02;;;;;;;12.00;10.80;;;11.80;99.90;;;;;;5072600;28;20526;-64
2021/10/02 02:08:31;;;;;;;9.90;8.90;;;11.80;99.90;;;;;;5072615;28;20463;-64
2021/10/02 02:11:01;;;;;;;11.40;10.20;;;11.80;99.90;;;;;;5072223;28;20854;-64
2021/10/02 02:13:29;;;;;;;12.40;9.10;;;11.90;99.90;;;;;;5071082;28;20429;-66
2021/10/02 02:16:00;;;;;;;11.73;10.00;;;11.90;99.90;;;;;;5072134;28;20447;-65
2021/10/02 02:18:28;;;;;;;10.93;9.73;;;11.90;99.90;;;;;;5072256;28;20469;-65
2021/10/02 02:20:57;;;;;;;10.87;9.20;;;12.00;99.90;;;;;;5071959;28;20439;-65
2021/10/02 02:23:26;;;;;;;13.23;10.27;;;12.00;99.90;;;;;;5071108;28;20442;-65
2021/10/02 02:25:54;;;;;;;12.43;9.23;;;11.90;99.90;;;;;;5072067;28;20451;-65
2021/10/02 02:28:22;;;;;;;12.97;9.23;;;11.80;99.90;;;;;;5071973;28;20555;-64
2021/10/02 02:30:49;;;;;;;11.67;9.50;;;11.80;99.90;;;;;;5071804;28;20458;-65
2021/10/02 02:33:18;;;;;;;11.40;9.77;;;11.80;99.90;;;;;;5071013;28;20486;-65
2021/10/02 02:35:46;;;;;;;9.80;8.63;;;11.80;99.90;;;;;;5071860;28;20826;-65
2021/10/02 02:38:14;;;;;;;13.30;9.97;;;11.90;99.90;;;;;;5072172;28;20528;-64
2021/10/02 02:40:42;;;;;;;14.20;10.03;;;11.90;99.90;;;;;;5071840;28;20451;-65
2021/10/02 02:43:10;;;;;;;11.50;10.30;;;11.90;99.90;;;;;;5070663;28;20451;-65
2021/10/02 02:45:38;;;;;;;11.63;9.87;;;11.90;99.90;;;;;;5071447;28;20440;-65
2021/10/02 02:48:11;;;;;;;11.60;9.60;;;11.90;99.90;;;;;;5071859;28;20463;-64
2021/10/02 02:50:47;;;;;;;12.63;9.67;;;11.90;99.90;;;;;;5071664;28;20797;-65
2021/10/02 02:53:22;;;;;;;11.90;9.90;;;12.00;99.90;;;;;;5070379;28;21140;-65
2021/10/02 02:55:55;;;;;;;15.23;9.80;;;12.00;99.90;;;;;;5070561;28;20450;-65
2021/10/02 02:58:24;;;;;;;14.30;10.30;;;12.00;99.90;;;;;;5071655;28;20466;-65
2021/10/02 03:00:56;;;;;;;10.67;9.53;;;11.90;99.90;;;;;;5071509;28;20449;-65
2021/10/02 03:03:25;;;;;;;11.97;9.80;;;11.90;99.90;;;;;;5070263;28;20450;-65
2021/10/02 03:05:58;;;;;;;13.97;9.80;;;11.90;99.90;;;;;;5071541;28;20937;-65
2021/10/02 03:08:26;;;;;;;12.13;10.83;;;11.80;99.90;;;;;;5071681;28;20549;-65
2021/10/02 03:10:59;;;;;;;10.13;8.83;;;11.80;99.90;;;;;;5071522;28;20451;-64
2021/10/02 03:13:27;;;;;;;11.93;10.57;;;11.90;99.90;;;;;;5070284;28;20486;-64
2021/10/02 03:15:55;;;;;;;9.50;8.57;;;11.80;99.90;;;;;;5071483;28;20534;-64
2021/10/02 03:18:25;;;;;;;11.63;9.37;;;11.80;99.90;;;;;;5071188;28;20489;-65
2021/10/02 03:20:56;;;;;;;10.43;9.33;;;11.80;99.90;;;;;;5071439;28;20447;-65
2021/10/02 03:23:25;;;;;;;11.30;9.23;;;11.80;99.90;;;;;;5069881;28;20435;-65
2021/10/02 03:25:52;;;;;;;12.40;9.63;;;11.80;99.90;;;;;;5071316;28;20538;-65
2021/10/02 03:28:20;;;;;;;15.00;9.30;;;11.80;99.90;;;;;;5071075;28;20473;-65
2021/10/02 03:30:47;;;;;;;11.07;8.70;;;11.80;99.90;;;;;;5071370;28;20473;-65
2021/10/02 03:33:15;;;;;;;11.50;9.73;;;11.70;99.90;;;;;;5069629;28;20482;-64
2021/10/02 03:35:42;;;;;;;11.13;9.67;;;11.70;99.90;;;;;;5071325;28;20451;-64
2021/10/02 03:38:11;;;;;;;12.67;9.40;;;11.80;99.90;;;;;;5070667;28;20475;-64
2021/10/02 03:40:38;;;;;;;9.63;8.40;;;11.80;99.90;;;;;;5070976;28;20546;-64
2021/10/02 03:43:05;;;;;;;10.80;9.70;;;11.90;99.90;;;;;;5069687;28;20447;-63
2021/10/02 03:45:36;;;;;;;11.23;9.87;;;12.00;99.90;;;;;;5071234;28;20469;-65
2021/10/02 03:48:04;;;;;;;15.77;9.03;;;11.90;99.90;;;;;;5071230;28;20467;-64
2021/10/02 03:50:31;;;;;;;10.10;8.90;;;11.90;99.90;;;;;;5070963;28;20443;-65
2021/10/02 03:52:58;;;;;;;10.83;8.13;;;11.80;99.90;;;;;;5069782;28;20483;-64
2021/10/02 03:55:26;;;;;;;10.53;8.93;;;11.70;99.90;;;;;;5070786;28;20458;-64
2021/10/02 03:57:53;;;;;;;10.80;9.03;;;11.80;99.90;;;;;;5070774;28;20473;-64
2021/10/02 04:00:23;;;;;;;11.37;8.23;;;11.80;99.90;;;;;;5070582;28;21114;-65
2021/10/02 04:02:49;;;;;;;14.70;11.23;;;11.80;99.90;;;;;;5069614;28;20508;-64
2021/10/02 04:05:16;;;;;;;11.50;9.17;;;11.80;99.90;;;;;;5070347;28;20534;-64
2021/10/02 04:07:43;;;;;;;14.40;9.30;;;11.80;99.90;;;;;;5069660;28;20463;-64
2021/10/02 04:10:11;;;;;;;28.37;11.40;;;11.80;99.90;;;;;;5070163;28;20828;-64
2021/10/02 04:12:39;;;;;;;10.03;8.70;;;11.80;99.90;;;;;;5069188;28;20479;-63
2021/10/02 04:15:07;;;;;;;10.80;8.93;;;11.70;99.90;;;;;;5070142;28;20443;-64
2021/10/02 04:17:34;;;;;;;13.00;9.30;;;11.70;99.90;;;;;;5070364;28;20508;-63
2021/10/02 04:20:01;;;;;;;10.20;8.53;;;11.80;99.90;;;;;;5070194;28;20933;-64
2021/10/02 04:22:28;;;;;;;11.00;9.70;;;11.80;99.90;;;;;;5069333;28;20451;-64
2021/10/02 04:24:55;;;;;;;11.70;9.10;;;11.80;99.90;;;;;;5069476;28;20447;-64
2021/10/02 04:27:22;;;;;;;10.00;8.90;;;11.80;99.90;;;;;;5069863;28;20470;-64
2021/10/02 04:29:50;;;;;;;13.00;8.63;;;11.80;99.90;;;;;;5070092;28;20451;-64
2021/10/02 04:32:17;;;;;;;12.67;8.53;;;11.80;99.90;;;;;;5069154;28;20490;-64
2021/10/02 04:34:44;;;;;;;10.80;8.80;;;11.80;99.90;;;;;;5069692;28;20494;-65
2021/10/02 04:37:11;;;;;;;11.13;9.30;;;11.80;99.90;;;;;;5069641;28;20822;-64
2021/10/02 04:39:37;;;;;;;11.17;8.67;;;11.80;99.90;;;;;;5070009;28;20461;-64
2021/10/02 04:42:05;;;;;;;11.60;9.37;;;11.90;99.90;;;;;;5068892;28;20451;-64
2021/10/02 04:44:32;;;;;;;11.80;8.40;;;11.90;99.90;;;;;;5069944;28;20451;-64
2021/10/02 04:47:01;;;;;;;15.50;9.73;;;11.90;99.90;;;;;;5070208;28;20531;-63
2021/10/02 04:49:28;;;;;;;10.47;9.30;;;11.90;99.90;;;;;;5071141;28;20510;-65
2021/10/02 04:51:55;;;;;;;10.13;8.83;;;11.80;99.90;;;;;;5069185;28;20442;-64
2021/10/02 04:54:22;;;;;;;9.23;8.03;;;11.70;99.90;;;;;;5068930;28;20451;-64
2021/10/02 04:56:49;;;;;;;9.47;8.30;;;11.70;99.90;;;;;;5069317;28;20445;-64
2021/10/02 04:59:16;;;;;;;10.90;8.70;;;11.70;99.90;;;;;;5069968;28;20932;-65
2021/10/02 05:01:42;;;;;;;9.57;8.53;;;11.70;99.90;;;;;;5069011;28;20450;-65
2021/10/02 05:04:11;;;;;;;11.33;9.07;;;11.60;99.90;;;;;;5069559;28;20958;-64
2021/10/02 05:06:38;;;;;;;10.60;8.70;;;11.60;99.90;;;;;;5069417;28;20439;-64
2021/10/02 05:09:05;;;;;;;11.57;8.77;;;11.60;99.90;;;;;;5069431;28;20545;-64
2021/10/02 05:11:32;;;;;;;11.30;9.00;;;11.60;99.90;;;;;;5068775;28;20457;-65
2021/10/02 05:13:58;;;;;;;12.77;8.50;;;11.50;99.90;;;;;;5068803;28;20479;-64
2021/10/02 05:16:25;;;;;;;9.63;8.33;;;11.60;99.90;;;;;;5069538;28;20538;-64
2021/10/02 05:18:52;;;;;;;11.60;9.23;;;11.50;99.90;;;;;;5072369;28;20562;-66
2021/10/02 05:21:21;;;;;;;9.73;8.40;;;11.50;99.90;;;;;;5073076;28;20819;-63
2021/10/02 05:23:48;;;;;;;13.83;9.53;;;11.50;99.90;;;;;;5072797;28;20431;-63
2021/10/02 05:26:15;;;;;;;12.10;8.70;;;11.50;99.90;;;;;;5073515;28;20447;-64
2021/10/02 05:28:42;;;;;;;12.60;9.33;;;11.50;99.90;;;;;;5073002;28;20815;-64
2021/10/02 05:31:09;;;;;;;11.07;9.20;;;11.50;99.90;;;;;;5073255;28;20451;-64
2021/10/02 05:33:36;;;;;;;11.23;9.30;;;11.50;99.90;;;;;;5071696;28;21094;-64
2021/10/02 05:36:03;;;;;;;9.37;7.60;;;11.40;99.90;;;;;;5072909;28;20466;-63
2021/10/02 05:38:31;;;;;;;12.57;9.40;;;11.30;99.90;;;;;;5072954;28;20463;-64
2021/10/02 05:40:58;;;;;;;11.10;8.73;;;11.40;99.90;;;;;;5072866;28;20443;-64
2021/10/02 05:43:25;;;;;;;11.53;9.70;;;11.40;99.90;;;;;;5071980;28;20454;-64
2021/10/02 05:45:52;;;;;;;11.00;9.03;;;11.50;99.90;;;;;;5073070;28;20453;-63
2021/10/02 05:48:19;;;;;;;12.73;10.10;;;11.60;99.90;;;;;;5073154;28;20462;-64
2021/10/02 05:50:45;;;;;;;9.40;8.37;;;11.70;99.90;;;;;;5072862;28;20482;-63
2021/10/02 05:53:13;;;;;;;12.90;9.40;;;11.80;99.90;;;;;;5071616;28;20482;-63
2021/10/02 05:55:41;;;;;;;11.27;9.27;;;11.90;99.90;;;;;;5073067;28;20886;-63
2021/10/02 05:58:08;;;;;;;8.63;7.73;;;12.10;99.90;;;;;;5073157;28;20495;-64
2021/10/02 06:00:35;;;;;;;10.27;8.27;;;12.20;99.90;;;;;;5073160;28;20958;-64
2021/10/02 06:03:02;;;;;;;13.53;8.93;;;12.30;99.90;;;;;;5071488;28;20446;-64
2021/10/02 06:05:29;;;;;;;11.07;8.63;;;12.40;99.90;;;;;;5072838;28;20439;-64
2021/10/02 06:07:57;;;;;;;12.27;8.80;;;12.60;99.90;;;;;;5073051;28;21126;-64
2021/10/02 06:10:24;;;;;;;10.40;7.63;;;12.80;99.90;;;;;;5072698;28;21157;-65
2021/10/02 06:12:54;;;;;;;12.67;9.93;;;12.90;99.90;;;;;;5071413;28;20479;-66
2021/10/02 06:15:22;;;;;;;9.50;7.30;;;13.00;99.90;;;;;;5071919;28;20446;-64
2021/10/02 06:17:49;;;;;;;8.40;7.50;;;13.00;99.90;;;;;;5072343;28;20823;-64
2021/10/02 06:20:16;;;;;;;8.97;7.47;;;13.10;99.90;;;;;;5072325;28;20439;-64
2021/10/02 06:22:43;;;;;;;8.63;7.37;;;13.20;99.90;;;;;;5071314;28;20440;-64
2021/10/02 06:25:11;;;;;;;9.77;7.80;;;13.20;99.90;;;;;;5072102;28;20455;-64
2021/10/02 06:27:39;;;;;;;10.80;8.50;;;13.20;99.90;;;;;;5072307;28;20839;-64
2021/10/02 06:30:09;;;;;;;9.20;8.23;;;13.20;99.90;;;;;;5071070;28;20443;-65
2021/10/02 06:32:36;;;;;;;11.23;8.73;;;13.10;99.90;;;;;;5071437;28;20447;-65
2021/10/02 06:35:04;;;;;;;9.37;8.10;;;13.10;99.90;;;;;;5071798;28;20458;-65
2021/10/02 06:37:31;;;;;;;10.00;8.33;;;13.00;99.90;;;;;;5071654;28;21111;-64
2021/10/02 06:39:58;;;;;;;11.90;8.63;;;12.90;99.90;;;;;;5071924;28;20466;-64
2021/10/02 06:42:25;;;;;;;11.50;8.23;;;12.90;99.90;;;;;;5070748;28;20590;-64
2021/10/02 06:44:51;;;;;;;9.20;7.50;;;12.90;99.90;;;;;;5071056;28;20443;-64
2021/10/02 06:47:23;;;;;;;10.67;8.37;;;12.90;99.90;;;;;;5071392;28;20462;-64
2021/10/02 06:49:50;;;;;;;10.00;8.73;;;12.90;99.90;;;;;;5071655;28;20887;-64
2021/10/02 06:52:16;;;;;;;8.67;7.80;;;12.90;99.90;;;;;;5070487;28;20447;-64
2021/10/02 06:54:43;;;;;;;9.77;8.57;;;13.00;99.90;;;;;;5070818;28;20495;-65
2021/10/02 06:57:12;;;;;;;9.30;8.40;;;13.00;99.90;;;;;;5070942;28;20477;-65
2021/10/02 06:59:39;;;;;;;11.37;8.70;;;13.10;99.90;;;;;;5071412;28;20459;-65
2021/10/02 07:02:06;;;;;;;9.93;8.50;;;13.10;99.90;;;;;;5070271;28;21278;-64
2021/10/02 07:04:35;;;;;;;8.30;7.43;;;13.10;99.90;;;;;;5070819;28;20445;-65
2021/10/02 07:07:02;;;;;;;8.40;7.40;;;13.20;99.90;;;;;;5070937;28;20475;-65
2021/10/02 07:09:29;;;;;;;14.30;8.20;;;13.30;99.90;;;;;;5070819;28;20814;-64
2021/10/02 07:11:56;;;;;;;15.30;8.63;;;13.40;99.90;;;;;;5070128;28;20500;-65
2021/10/02 07:14:23;;;;;;;10.43;7.87;;;13.40;99.90;;;;;;5070388;28;20883;-64
2021/10/02 07:16:50;;;;;;;12.47;9.20;;;13.60;99.90;;;;;;5071101;28;20446;-64
2021/10/02 07:19:17;;;;;;;10.07;8.10;;;13.70;99.90;;;;;;5070851;28;20542;-64
2021/10/02 07:21:46;;;;;;;9.67;8.33;;;13.70;99.90;;;;;;5069900;28;20577;-64
2021/10/02 07:24:13;;;;;;;12.40;9.43;;;13.70;99.90;;;;;;5070024;28;20447;-63
2021/10/02 07:26:40;;;;;;;9.03;7.87;;;13.90;99.90;;;;;;5070628;28;20487;-64
2021/10/02 07:29:07;;;;;;;11.20;8.70;;;14.00;99.90;;;;;;5070373;28;20840;-63
2021/10/02 07:31:34;;;;;;;10.83;9.70;;;14.10;99.90;;;;;;5069564;28;20988;-63
2021/10/02 07:34:02;;;;;;;12.63;9.67;;;14.10;99.90;;;;;;5069714;28;20475;-64
2021/10/02 07:36:29;;;;;;;12.97;10.03;;;14.10;99.90;;;;;;5070449;28;20474;-64
2021/10/02 07:38:57;;;;;;;13.63;9.90;;;14.10;99.90;;;;;;5069950;28;20463;-64
2021/10/02 07:41:26;;;;;;;11.73;8.70;;;14.10;99.90;;;;;;5069850;28;20447;-65
2021/10/02 07:43:56;;;;;;;9.40;8.13;;;14.00;99.90;;;;;;5069384;28;20446;-65
2021/10/02 07:46:23;;;;;;;10.07;8.70;;;14.00;99.90;;;;;;5068325;28;20456;-64
2021/10/02 07:48:53;;;;;;;10.10;9.00;;;14.00;99.90;;;;;;5069548;28;20962;-65
2021/10/02 07:51:21;;;;;;;10.50;9.07;;;14.10;99.90;;;;;;5069614;28;20523;-65
2021/10/02 07:53:50;;;;;;;10.43;9.40;;;14.20;99.90;;;;;;5069383;28;20948;-64
2021/10/02 07:56:19;;;;;;;10.47;7.87;;;14.40;99.90;;;;;;5069725;28;20450;-64
2021/10/02 07:58:48;;;;;;;8.77;7.70;;;14.50;99.90;;;;;;5070127;28;20470;-64
2021/10/02 08:01:16;;;;;;;13.80;8.98;;;14.70;99.90;;;;;;5069846;28;20336;-65
2021/10/02 08:03:44;;;;;;;8.40;7.60;;;14.80;99.90;;;;;;5069146;28;20770;-64
2021/10/02 08:06:14;;;;;;;13.90;9.63;;;15.00;99.90;;;;;;5069584;28;20573;-65
2021/10/02 08:08:43;;;;;;;10.50;8.57;;;15.10;99.90;;;;;;5070052;28;20474;-64
2021/10/02 08:11:10;;;;;;;10.10;8.60;;;15.30;99.90;;;;;;5069593;28;20557;-64
2021/10/02 08:13:38;;;;;;;10.30;8.03;;;15.50;99.90;;;;;;5068641;28;20485;-65
2021/10/02 08:16:07;;;;;;;10.70;8.60;;;15.60;99.90;;;;;;5069621;28;20454;-65
2021/10/02 08:18:38;;;;;;;9.23;8.17;;;15.70;99.90;;;;;;5069626;28;20555;-64
2021/10/02 08:21:07;;;;;;;8.60;7.70;;;15.90;99.90;;;;;;5069821;28;20457;-65
2021/10/02 08:23:36;;;;;;;11.47;8.17;;;16.00;99.90;;;;;;5068580;28;20439;-65
2021/10/02 08:26:05;;;;;;;7.27;6.57;;;16.20;99.90;;;;;;5069594;28;20508;-66
2021/10/02 08:28:33;;;;;;;7.57;6.77;;;16.30;99.90;;;;;;5069711;28;20983;-69
2021/10/02 08:31:03;;;;;;;8.43;6.70;;;16.50;99.90;;;;;;5068447;28;21022;-68
2021/10/02 08:33:30;;;;;;;8.40;7.40;;;16.70;99.90;;;;;;5063294;28;20862;-64
2021/10/02 08:35:58;;;;;;;8.43;7.07;;;16.80;99.90;;;;;;5068599;28;20534;-70
2021/10/02 08:38:25;;;;;;;8.40;7.20;;;17.00;99.90;;;;;;5068491;28;20479;-63
2021/10/02 08:40:55;;;;;;;9.40;6.60;;;17.20;99.90;;;;;;5068486;28;20483;-70
2021/10/02 08:43:24;;;;;;;8.30;6.90;;;17.30;99.90;;;;;;5067153;28;20443;-64
2021/10/02 08:45:52;;;;;;;7.30;6.57;;;17.40;99.90;;;;;;5068783;28;20442;-64
2021/10/02 08:48:21;;;;;;;8.23;6.73;;;17.40;99.90;;;;;;5067855;28;20455;-63
2021/10/02 08:50:49;;;;;;;7.37;6.20;;;17.50;99.90;;;;;;5068085;28;20535;-64
2021/10/02 08:53:17;;;;;;;9.97;6.50;;;17.80;99.90;;;;;;5068798;28;20848;-64
2021/10/02 08:55:45;;;;;;;8.03;5.70;;;17.90;99.90;;;;;;5072562;28;20508;-64
2021/10/02 08:58:12;;;;;;;6.93;5.50;;;18.00;99.90;;;;;;5072130;28;20466;-64
2021/10/02 09:00:40;;;;;;;7.10;5.80;;;18.20;99.90;;;;;;5072665;28;20450;-63
2021/10/02 09:03:07;;;;;;;5.70;4.20;;;18.40;99.90;;;;;;5071458;28;20449;-64
2021/10/02 09:05:35;;;;;;;5.70;4.97;;;18.50;99.90;;;;;;5072173;28;20442;-65
2021/10/02 09:08:03;;;;;;;8.60;5.10;;;18.80;99.90;;;;;;5072452;28;20462;-65
2021/10/02 09:10:32;;;;;;;7.30;5.30;;;18.90;99.90;;;;;;5071617;28;20469;-63
2021/10/02 09:12:59;;;;;;;8.40;4.77;;;19.10;99.90;;;;;;5070933;28;20446;-64
2021/10/02 09:15:26;;;;;;;8.57;5.63;;;19.40;99.90;;;;;;5071652;28;20482;-63
2021/10/02 09:17:54;;;;;;;6.83;4.80;;;19.60;99.90;;;;;;5070269;28;20466;-63
2021/10/02 09:20:22;;;;;;;6.90;4.23;;;20.00;99.90;;;;;;5069806;28;20451;-63
2021/10/02 09:22:54;;;;;;;6.27;4.40;;;20.10;99.90;;;;;;5067438;28;20505;-64
2021/10/02 09:25:22;;;;;;;4.83;4.07;;;20.30;99.90;;;;;;5068683;28;20439;-63
2021/10/02 09:28:05;;;;;;;4.40;3.63;;;20.50;99.90;;;;;;5066066;28;20463;-63
2021/10/02 09:30:33;;;;;;;3.90;3.40;;;20.80;99.90;;;;;;5071096;28;21007;-62
2021/10/02 09:33:06;;;;;;;7.20;4.83;;;20.80;99.90;;;;;;5071592;28;20443;-63
2021/10/02 09:35:38;;;;;;;6.40;3.60;;;21.00;99.90;;;;;;5072619;28;20482;-63
2021/10/02 09:38:09;;;;;;;4.43;3.50;;;21.30;99.90;;;;;;5072685;28;20480;-63
2021/10/02 09:40:36;;;;;;;3.60;3.10;;;21.60;99.90;;;;;;5072614;28;20455;-64
2021/10/02 09:43:05;;;;;;;6.00;3.37;;;21.90;99.90;;;;;;5070184;28;20443;-64
2021/10/02 09:45:35;;;;;;;4.40;3.03;;;22.30;99.90;;;;;;5069632;28;20462;-64
2021/10/02 09:48:05;;;;;;;3.80;3.10;;;22.60;99.90;;;;;;5063413;28;21060;-63
2021/10/02 09:50:34;;;;;;;4.50;3.03;;;22.90;98.60;;;;;;5068457;28;20448;-64
2021/10/02 09:53:04;;;;;;;5.43;3.50;;;23.00;99.00;;;;;;5060781;28;20444;-64
2021/10/02 09:55:34;;;;;;;4.07;3.00;;;23.00;96.10;;;;;;5066494;28;20478;-64
2021/10/02 09:58:03;;;;;;;5.07;3.00;;;23.20;96.30;;;;;;5070242;28;20561;-64
2021/10/02 10:00:33;;;;;;;4.40;2.73;;;23.60;96.00;;;;;;5067157;28;20446;-64
2021/10/02 10:03:03;;;;;;;5.13;3.87;;;23.80;96.30;;;;;;5064486;28;20435;-64
2021/10/02 10:05:33;;;;;;;4.20;3.20;;;23.80;93.70;;;;;;5072565;28;20439;-64
2021/10/02 10:08:02;;;;;;;4.97;3.47;;;23.80;95.20;;;;;;5072022;28;20469;-64
2021/10/02 10:10:32;;;;;;;5.87;3.20;;;24.00;94.70;;;;;;5072016;28;20457;-64
2021/10/02 10:13:04;;;;;;;4.37;3.40;;;24.40;95.20;;;;;;5067915;28;20534;-64
2021/10/02 10:15:39;;;;;;;4.00;3.20;;;24.90;93.60;;;;;;5070082;28;20483;-64
2021/10/02 10:18:07;;;;;;;6.67;3.30;;;25.30;94.10;;;;;;5064040;28;20827;-64
2021/10/02 10:20:42;;;;;;;4.90;3.30;;;25.30;92.10;;;;;;5062756;28;20461;-64
2021/10/02 10:23:11;;;;;;;6.40;3.70;;;25.40;93.40;;;;;;5060209;28;20450;-63
2021/10/02 10:25:54;;;;;;;5.90;3.20;;;25.70;92.30;;;;;;5061402;28;20854;-66
2021/10/02 10:28:24;;;;;;;4.40;3.60;;;25.90;91.00;;;;;;5065470;28;20490;-64
2021/10/02 10:30:52;;;;;;;4.17;3.00;;;26.00;90.50;;;;;;5070381;28;20443;-65
2021/10/02 10:33:21;;;;;;;4.40;3.67;;;26.00;89.00;;;;;;5068553;28;20445;-65
2021/10/02 10:35:50;;;;;;;3.80;3.00;;;25.50;89.70;;;;;;5071539;28;20825;-64
2021/10/02 10:38:19;;;;;;;4.40;3.20;;;25.00;91.00;;;;;;5065063;28;20479;-64
2021/10/02 10:40:47;;;;;;;5.60;3.67;;;25.00;91.20;;;;;;5063506;28;20530;-64
2021/10/02 10:43:16;;;;;;;7.67;3.40;;;25.50;91.70;;;;;;5065375;28;20441;-63
2021/10/02 10:45:43;;;;;;;4.07;3.27;;;25.90;90.30;;;;;;5067414;28;20530;-63
2021/10/02 10:48:11;;;;;;;5.83;3.43;;;26.20;89.80;;;;;;5065466;28;20464;-63
2021/10/02 10:50:41;;;;;;;6.10;3.53;;;26.50;90.30;;;;;;5061787;28;20442;-66
2021/10/02 10:53:09;;;;;;;4.13;3.13;;;26.30;89.10;;;;;;5063703;28;20443;-64
2021/10/02 10:55:50;;;;;;;5.30;3.37;;;26.40;88.10;;;;;;5058787;28;20476;-64
2021/10/02 10:58:27;;;;;;;4.33;3.20;;;26.60;86.30;;;;;;5059047;28;21019;-64
2021/10/02 11:00:54;;;;;;;4.80;3.97;;;27.00;86.40;;;;;;5058469;28;20637;-64
2021/10/02 11:03:41;;;;;;;5.57;3.63;;;27.00;86.20;;;;;;5058747;28;20445;-64
2021/10/02 11:06:09;;;;;;;5.10;3.47;;;27.00;85.00;;;;;;5060186;28;20521;-63
2021/10/02 11:09:07;;;;;;;3.63;2.67;;;26.20;84.00;;;;;;5058302;28;20572;-62
2021/10/02 11:11:56;;;;;;;4.03;3.30;;;25.60;89.70;;;;;;5042764;28;20554;-65
2021/10/02 11:14:44;;;;;;;5.00;3.40;;;26.50;87.10;;;;;;5060463;28;20568;-64
2021/10/02 11:17:11;;;;;;;4.80;3.40;;;27.10;84.10;;;;;;5065039;28;21037;-64
2021/10/02 11:19:39;;;;;;;4.70;3.30;;;27.90;83.00;;;;;;5065670;28;20490;-65
2021/10/02 11:22:47;;;;;;;5.33;3.83;;;28.40;80.70;;;;;;5062077;28;20987;-64
2021/10/02 11:25:18;;;;;;;3.80;3.30;;;27.60;77.50;;;;;;5034840;28;21143;-65
2021/10/02 11:27:45;;;;;;;5.87;3.20;;;26.80;82.40;;;;;;5050293;28;20491;-65
2021/10/02 11:30:15;;;;;;;6.30;3.90;;;27.00;84.10;;;;;;5050302;28;20514;-64
2021/10/02 11:32:42;;;;;;;6.40;3.50;;;28.20;80.10;;;;;;5049442;28;20444;-64
2021/10/02 11:35:12;;;;;;;4.77;3.53;;;29.00;79.50;;;;;;5050641;28;20482;-65
2021/10/02 11:37:44;;;;;;;5.40;3.50;;;28.00;78.50;;;;;;5050597;28;20471;-64
2021/10/02 11:40:49;;;;;;;5.30;3.67;;;28.40;76.90;;;;;;5050279;28;20471;-65
2021/10/02 11:43:40;;;;;;;5.20;3.33;;;27.60;77.80;;;;;;5049122;28;20497;-66
2021/10/02 11:46:10;;;;;;;4.53;3.10;;;26.90;80.10;;;;;;5049214;28;20543;-67
2021/10/02 11:48:46;;;;;;;3.93;3.20;;;27.80;80.70;;;;;;5072191;28;20640;-67
2021/10/02 11:51:20;;;;;;;5.77;3.40;;;29.30;77.40;;;;;;5069637;28;20450;-66
2021/10/02 11:53:48;;;;;;;4.20;3.07;;;30.60;73.90;;;;;;5069225;28;20534;-66
2021/10/02 11:56:19;;;;;;;4.37;3.40;;;31.00;70.10;;;;;;5069810;28;20499;-66
2021/10/02 11:58:47;;;;;;;6.27;3.60;;;30.40;68.80;;;;;;5057338;28;20460;-66
2021/10/02 12:01:21;;;;;;;4.10;3.13;;;29.30;72.30;;;;;;5049721;28;20527;-67
2021/10/02 12:03:49;;;;;;;3.70;2.90;;;29.20;72.80;;;;;;5059983;28;21258;-67
2021/10/02 12:06:21;;;;;;;3.83;3.10;;;30.30;71.30;;;;;;5070074;28;20443;-67
2021/10/02 12:08:50;;;;;;;3.93;2.70;;;30.70;65.90;;;;;;5069858;28;20471;-66
2021/10/02 12:11:18;;;;;;;4.90;3.27;;;31.30;65.70;;;;;;5069027;28;20819;-64
2021/10/02 12:13:49;;;;;;;5.20;2.90;;;31.60;63.90;;;;;;5067837;28;20968;-64
2021/10/02 12:16:18;;;;;;;3.30;2.50;;;30.90;63.60;;;;;;5064303;28;21238;-65
2021/10/02 12:18:49;;;;;;;3.70;3.03;;;30.80;66.20;;;;;;5059785;28;20907;-66
2021/10/02 12:21:30;;;;;;;3.73;3.17;;;32.10;66.80;;;;;;5060844;28;21141;-66
2021/10/02 12:24:02;;;;;;;4.00;2.97;;;33.40;62.90;;;;;;5058803;28;21032;-67
2021/10/02 12:26:29;;;;;;;4.40;2.93;;;33.50;59.70;;;;;;5057374;28;20465;-66
2021/10/02 12:29:01;;;;;;;4.73;3.07;;;33.50;58.20;;;;;;5061111;28;20470;-65
2021/10/02 12:31:47;;;;;;;4.53;2.90;;;33.40;57.50;;;;;;5055653;28;20527;-65
2021/10/02 12:34:18;;;;;;;3.93;3.53;;;33.80;57.30;;;;;;5056671;28;20447;-66
2021/10/02 12:36:49;;;;;;;3.77;3.20;;;32.60;56.50;;;;;;5058195;28;20455;-65
2021/10/02 12:39:17;;;;;;;3.97;3.20;;;31.20;58.70;;;;;;5060230;28;20443;-65
2021/10/02 12:41:46;;;;;;;3.60;2.70;;;29.80;62.00;;;;;;5064561;28;20546;-65
2021/10/02 12:44:18;;;;;;;4.23;3.00;;;28.10;66.50;;;;;;5057164;28;20475;-66
2021/10/02 12:46:45;;;;;;;4.67;3.17;;;27.50;72.80;;;;;;5067842;28;20490;-66
2021/10/02 12:49:13;;;;;;;5.57;3.30;;;26.90;71.40;;;;;;5067905;28;20542;-65
2021/10/02 12:51:42;;;;;;;3.67;2.93;;;25.80;73.80;;;;;;5067539;28;20842;-67
2021/10/02 12:54:10;;;;;;;3.53;2.87;;;25.20;76.60;;;;;;5066531;28;20453;-67
2021/10/02 12:56:51;;;;;;;4.33;3.50;;;24.50;79.50;;;;;;5063797;28;20496;-66
2021/10/02 12:59:18;;;;;;;4.43;3.30;;;24.40;80.50;;;;;;5063864;28;20520;-68
2021/10/02 13:01:47;;;;;;;5.87;3.80;;;24.80;81.60;;;;;;5064555;28;20594;-67
2021/10/02 13:04:17;;;;;;;4.30;3.43;;;24.90;81.50;;;;;;5064686;28;20810;-65
2021/10/02 13:06:54;;;;;;;4.80;3.00;;;25.30;81.60;;;;;;5067773;28;20469;-65
2021/10/02 13:09:21;;;;;;;4.77;3.67;;;26.20;78.60;;;;;;5067894;28;20537;-65
2021/10/02 13:11:48;;;;;;;3.90;3.17;;;26.50;76.60;;;;;;5063435;28;20439;-65
2021/10/02 13:14:30;;;;;;;4.13;3.53;;;26.40;75.90;;;;;;5064187;28;20479;-66
2021/10/02 13:17:01;;;;;;;5.57;3.50;;;26.20;76.40;;;;;;5064427;28;20455;-66
2021/10/02 13:19:29;;;;;;;6.10;3.23;;;25.90;77.20;;;;;;5060117;28;20521;-67
2021/10/02 13:22:21;;;;;;;5.10;3.47;;;25.50;79.40;;;;;;5066268;28;20841;-66
2021/10/02 13:25:11;;;;;;;4.30;3.50;;;25.60;83.20;;;;;;5052612;28;20542;-66
2021/10/02 13:27:42;;;;;;;4.43;3.03;;;25.70;82.00;;;;;;5067397;28;20451;-67
2021/10/02 13:30:12;;;;;;;3.80;3.20;;;25.70;79.70;;;;;;5067939;28;20522;-66
2021/10/02 13:32:41;;;;;;;4.80;3.40;;;25.60;78.60;;;;;;5063505;28;20538;-66
2021/10/02 13:35:11;;;;;;;3.97;2.77;;;25.20;80.80;;;;;;5059532;28;20486;-66
2021/10/02 13:37:45;;;;;;;4.37;2.90;;;25.00;79.50;;;;;;5061784;28;20475;-67
2021/10/02 13:40:21;;;;;;;5.77;3.13;;;24.90;81.50;;;;;;5068507;28;20447;-66